Time;durP1;ratioP1;P1;durP2;ratioP2;P2;SDS_P1;SDS_P2;PMS_P1;PMS_P2;Temp;Humidity;BMP_temperature;BMP_pressure;BME280_temperature;BME280_humidity;BME280_pressure;Samples;Min_cycle;Max_cycle;Signal;HPM_P1;HPM_P2
2022/11/23 00:01:26;;;;;;;31.07;16.25;;;;;;;-0.44;100.00;99608.97;1688438;82;21108;-66
2022/11/23 00:03:55;;;;;;;31.37;16.77;;;;;;;-0.45;100.00;99615.88;1702616;83;21009;-66
2022/11/23 00:06:22;;;;;;;33.35;17.35;;;;;;;-0.31;100.00;99618.45;1701348;83;20998;-66
2022/11/23 00:08:49;;;;;;;27.13;14.23;;;;;;;-0.34;100.00;99619.75;1729331;82;21092;-66
2022/11/23 00:11:16;;;;;;;31.97;16.25;;;;;;;-0.36;100.00;99620.19;1742141;81;21091;-67
2022/11/23 00:13:43;;;;;;;28.05;15.48;;;;;;;-0.51;100.00;99618.45;1716848;81;21052;-67
2022/11/23 00:16:14;;;;;;;31.20;16.30;;;;;;;-0.43;100.00;99618.47;1729165;82;21185;-66
2022/11/23 00:18:42;;;;;;;;;;;;;;;-0.44;100.00;99619.31;1727616;83;21120;-66
2022/11/23 00:21:11;;;;;;;26.52;12.88;;;;;;;-0.44;100.00;99625.78;1742298;81;20198;-66
2022/11/23 00:23:40;;;;;;;28.75;14.68;;;;;;;-0.50;100.00;99629.69;1724508;81;21330;-66
2022/11/23 00:26:06;;;;;;;27.80;14.93;;;;;;;-0.36;100.00;99633.13;1729279;82;21551;-66
2022/11/23 00:28:36;;;;;;;27.55;14.43;;;;;;;-0.41;100.00;99632.27;1729007;82;21053;-66
2022/11/23 00:31:02;;;;;;;30.68;14.13;;;;;;;-0.38;100.00;99633.98;1741850;81;21060;-66
2022/11/23 00:33:28;;;;;;;27.15;14.55;;;;;;;-0.34;100.00;99630.11;1725432;81;21219;-66
2022/11/23 00:36:05;;;;;;;25.35;14.30;;;;;;;-0.32;100.00;99628.37;1729023;82;21177;-66
2022/11/23 00:38:31;;;;;;;26.73;13.68;;;;;;;-0.28;100.00;99627.48;1729217;82;21117;-66
2022/11/23 00:41:03;;;;;;;24.37;14.65;;;;;;;-0.17;100.00;99631.80;1714834;81;21064;-66
2022/11/23 00:43:31;;;;;;;30.17;15.40;;;;;;;-0.18;100.00;99633.95;1727681;82;21036;-66
2022/11/23 00:46:19;;;;;;;26.35;14.65;;;;;;;-0.25;100.00;99634.41;1728906;82;21113;-66
2022/11/23 00:48:48;;;;;;;28.67;14.10;;;;;;;-0.24;100.00;99634.39;1729100;82;21382;-66
2022/11/23 00:51:19;;;;;;;23.70;12.43;;;;;;;-0.27;100.00;99631.81;1729360;82;21028;-66
2022/11/23 00:53:45;;;;;;;26.52;13.62;;;;;;;-0.25;100.00;99635.27;1738995;81;21054;-66
2022/11/23 00:56:12;;;;;;;24.75;13.72;;;;;;;-0.28;100.00;99635.25;1722795;81;21064;-66
2022/11/23 00:58:39;;;;;;;26.55;13.93;;;;;;;-0.28;100.00;99633.95;1726407;82;20993;-67
2022/11/23 01:01:11;;;;;;;25.25;12.90;;;;;;;-0.31;100.00;99635.27;1743091;81;21232;-66
2022/11/23 01:03:40;;;;;;;26.45;13.18;;;;;;;-0.20;100.00;99631.82;1728898;82;21092;-65
2022/11/23 01:06:11;;;;;;;24.47;13.00;;;;;;;-0.28;100.00;99621.02;1728828;82;21100;-65
2022/11/23 01:08:38;;;;;;;24.00;12.63;;;;;;;-0.28;100.00;99621.02;1727360;82;21011;-66
2022/11/23 01:11:08;;;;;;;22.42;12.33;;;;;;;-0.24;100.00;99631.80;1681542;84;21056;-67
2022/11/23 01:13:37;;;;;;;21.05;11.70;;;;;;;-0.25;100.00;99636.56;1689613;84;21085;-66
2022/11/23 01:16:07;;;;;;;21.40;11.45;;;;;;;-0.29;100.00;99637.42;1693816;84;21093;-65
2022/11/23 01:18:35;;;;;;;21.68;11.63;;;;;;;-0.40;100.00;99637.86;1697906;84;21092;-66
2022/11/23 01:21:02;;;;;;;22.67;11.53;;;;;;;-0.31;100.00;99636.56;1685967;84;21082;-64
2022/11/23 01:23:32;;;;;;;22.52;11.28;;;;;;;-0.14;100.00;99633.08;1686292;84;21652;-66
2022/11/23 01:26:05;;;;;;;18.17;10.32;;;;;;;-0.28;100.00;99635.25;1687460;84;21143;-66
2022/11/23 01:28:33;;;;;;;27.13;12.23;;;;;;;-0.24;100.00;99641.30;1687412;84;21548;-64
2022/11/23 01:31:11;;;;;;;17.37;9.28;;;;;;;-0.17;100.00;99653.80;1683049;84;21017;-66
2022/11/23 01:33:39;;;;;;;21.82;11.83;;;;;;;-0.06;100.00;99655.95;1684673;84;21052;-66
2022/11/23 01:36:13;;;;;;;23.40;12.93;;;;;;;-0.30;100.00;99647.36;1683252;84;21599;-66
2022/11/23 01:38:41;;;;;;;24.70;12.70;;;;;;;-0.11;100.00;99649.48;1693729;84;21072;-65
2022/11/23 01:41:12;;;;;;;22.00;12.98;;;;;;;-0.19;100.00;99653.80;1700934;83;21221;-65
2022/11/23 01:43:39;;;;;;;26.37;13.15;;;;;;;-0.18;100.00;99654.65;1709673;83;21056;-66
2022/11/23 01:46:06;;;;;;;21.15;11.83;;;;;;;-0.03;100.00;99662.41;1711756;83;21048;-66
2022/11/23 01:48:38;;;;;;;22.48;12.23;;;;;;;-0.10;100.00;99658.96;1712151;83;21120;-66
2022/11/23 01:51:13;;;;;;;22.75;12.47;;;;;;;-0.13;100.00;99657.68;1711905;83;21615;-66
2022/11/23 01:53:42;;;;;;;24.20;12.55;;;;;;;0.04;100.00;99657.64;1711476;83;21092;-66
2022/11/23 01:56:13;;;;;;;26.80;11.80;;;;;;;-0.01;100.00;99654.20;1729219;82;21064;-66
2022/11/23 01:58:42;;;;;;;19.40;11.35;;;;;;;-0.08;100.00;99656.38;1732626;82;21084;-65
2022/11/23 02:01:09;;;;;;;22.50;11.93;;;;;;;-0.13;100.00;99655.53;1706781;83;21026;-66
2022/11/23 02:03:36;;;;;;;22.15;11.45;;;;;;;-0.07;100.00;99647.73;1687129;84;21154;-66
2022/11/23 02:06:10;;;;;;;20.35;11.10;;;;;;;-0.04;100.00;99651.64;1691715;83;21104;-65
2022/11/23 02:08:38;;;;;;;23.57;11.70;;;;;;;-0.07;100.00;99658.09;1668434;84;21576;-66
2022/11/23 02:11:05;;;;;;;20.40;11.38;;;;;;;0.01;100.00;99658.09;1681833;84;21517;-66
2022/11/23 02:13:31;;;;;;;21.25;10.65;;;;;;;-0.01;100.00;99663.27;1720073;83;21029;-66
2022/11/23 02:15:58;;;;;;;21.07;11.40;;;;;;;-0.01;100.00;99665.86;1719874;82;21224;-66
2022/11/23 02:18:27;;;;;;;19.30;11.08;;;;;;;0.00;100.00;99659.83;1719705;83;21041;-66
2022/11/23 02:20:59;;;;;;;21.23;11.20;;;;;;;0.05;100.00;99660.68;1720272;83;21619;-65
2022/11/23 02:23:35;;;;;;;22.95;12.95;;;;;;;0.13;100.00;99666.69;1719989;83;21595;-67
2022/11/23 02:26:27;;;;;;;24.72;12.85;;;;;;;0.18;100.00;99666.67;1719853;82;21045;-65
2022/11/23 02:29:20;;;;;;;19.17;10.75;;;;;;;0.05;100.00;99678.80;1699675;83;21257;-66
2022/11/23 02:31:47;;;;;;;21.52;12.10;;;;;;;0.19;100.00;99673.16;1710481;83;21116;-65
2022/11/23 02:34:16;;;;;;;22.15;11.48;;;;;;;0.18;100.00;99672.74;1703706;83;21085;-65
2022/11/23 02:36:50;;;;;;;21.07;11.35;;;;;;;0.11;100.00;99672.30;1680213;84;22526;-65
2022/11/23 02:39:41;;;;;;;20.72;10.93;;;;;;;-0.09;100.00;99667.58;1677045;84;21091;-65
2022/11/23 02:42:09;;;;;;;20.08;11.60;;;;;;;-0.05;100.00;99671.89;1682988;85;21183;-65
2022/11/23 02:45:03;;;;;;;22.25;11.95;;;;;;;0.09;100.00;99688.30;1681204;84;21066;-65
2022/11/23 02:47:29;;;;;;;27.20;12.45;;;;;;;-0.01;100.00;99688.72;1680942;84;21136;-65
2022/11/23 02:49:56;;;;;;;23.90;12.00;;;;;;;0.06;100.00;99683.10;1683117;85;21684;-64
2022/11/23 02:52:23;;;;;;;24.30;12.33;;;;;;;0.12;100.00;99675.33;1679229;84;21103;-65
2022/11/23 02:54:50;;;;;;;29.48;13.05;;;;;;;0.20;100.00;99676.16;1671179;84;21571;-66
2022/11/23 02:57:18;;;;;;;26.73;13.75;;;;;;;0.06;100.00;99689.58;1687742;84;21105;-66
2022/11/23 02:59:46;;;;;;;26.30;13.62;;;;;;;-0.03;100.00;99687.00;1720280;83;22067;-67
2022/11/23 03:02:12;;;;;;;30.10;14.68;;;;;;;-0.05;100.00;99690.02;1722446;82;21052;-66
2022/11/23 03:04:41;;;;;;;28.25;13.10;;;;;;;-0.03;100.00;99690.88;1711559;83;21517;-64
2022/11/23 03:07:08;;;;;;;25.75;13.50;;;;;;;0.03;100.00;99689.59;1703694;83;21146;-67
2022/11/23 03:09:35;;;;;;;21.85;11.68;;;;;;;0.09;100.00;99693.48;1704278;82;21128;-63
2022/11/23 03:12:03;;;;;;;27.87;13.75;;;;;;;0.20;100.00;99692.14;1689047;84;21065;-65
2022/11/23 03:14:30;;;;;;;28.17;13.43;;;;;;;0.23;100.00;99698.63;1692390;84;21085;-64
2022/11/23 03:17:00;;;;;;;25.25;13.20;;;;;;;0.30;100.00;99695.56;1750330;81;21439;-64
2022/11/23 03:19:29;;;;;;;27.82;13.65;;;;;;;0.27;100.00;99694.28;1746211;81;21603;-66
2022/11/23 03:21:56;;;;;;;26.15;13.05;;;;;;;0.29;100.00;99692.56;1734223;81;21049;-66
2022/11/23 03:24:22;;;;;;;29.15;13.65;;;;;;;0.35;100.00;99684.78;1748947;81;21050;-65
2022/11/23 03:26:50;;;;;;;27.48;13.28;;;;;;;0.34;100.00;99686.93;1745625;81;21552;-66
2022/11/23 03:29:19;;;;;;;24.27;11.48;;;;;;;0.33;100.00;99686.08;1749882;81;21051;-64
2022/11/23 03:31:48;;;;;;;26.33;13.72;;;;;;;0.39;100.00;99681.30;1760133;81;21596;-65
2022/11/23 03:34:17;;;;;;;;;;;;;;;0.36;100.00;99686.49;1757681;81;21060;-66
2022/11/23 03:36:44;;;;;;;25.95;12.35;;;;;;;0.40;100.00;99677.86;1745147;81;20257;-65
2022/11/23 03:39:10;;;;;;;27.93;13.60;;;;;;;0.45;100.00;99674.81;1733251;81;21105;-65
2022/11/23 03:41:39;;;;;;;25.27;12.33;;;;;;;0.43;100.00;99676.98;1703379;81;21575;-66
2022/11/23 03:44:05;;;;;;;24.77;13.60;;;;;;;0.48;100.00;99674.79;1729136;81;21088;-66
2022/11/23 03:46:32;;;;;;;22.20;12.53;;;;;;;0.62;100.00;99683.40;1738820;81;21037;-66
2022/11/23 03:48:59;;;;;;;20.52;10.43;;;;;;;0.56;100.00;99686.00;1737761;81;21001;-66
2022/11/23 03:51:26;;;;;;;25.02;11.83;;;;;;;0.55;100.00;99686.88;1735580;81;21564;-64
2022/11/23 03:53:52;;;;;;;26.33;13.28;;;;;;;0.47;100.00;99693.80;1744430;81;21052;-65
2022/11/23 03:56:19;;;;;;;24.52;13.08;;;;;;;0.50;100.00;99695.08;1749864;81;21144;-64
2022/11/23 03:58:46;;;;;;;24.92;12.00;;;;;;;0.45;100.00;99703.31;1757090;81;21060;-65
2022/11/23 04:01:13;;;;;;;23.00;11.85;;;;;;;0.39;100.00;99707.20;1734114;81;21568;-65
2022/11/23 04:03:42;;;;;;;20.80;11.25;;;;;;;0.51;100.00;99705.89;1728937;81;21579;-65
2022/11/23 04:06:10;;;;;;;21.30;11.28;;;;;;;0.50;100.00;99708.03;1728425;81;21060;-65
2022/11/23 04:08:51;;;;;;;22.35;10.55;;;;;;;0.55;100.00;99705.43;1731347;81;21121;-65
2022/11/23 04:11:20;;;;;;;25.52;13.30;;;;;;;0.47;100.00;99708.50;1741894;81;21553;-65
2022/11/23 04:13:48;;;;;;;24.47;12.80;;;;;;;0.54;100.00;99711.49;1760174;81;21084;-65
2022/11/23 04:16:15;;;;;;;23.22;11.80;;;;;;;0.43;100.00;99713.25;1761326;80;21116;-65
2022/11/23 04:18:41;;;;;;;23.32;12.05;;;;;;;0.38;100.00;99723.62;1757145;80;21577;-65
2022/11/23 04:21:09;;;;;;;25.92;12.20;;;;;;;0.64;100.00;99720.95;1756150;80;21509;-64
2022/11/23 04:23:37;;;;;;;22.40;11.25;;;;;;;0.38;100.00;99718.00;1756935;80;21044;-64
2022/11/23 04:26:04;;;;;;;26.75;12.78;;;;;;;0.47;100.00;99710.64;1754525;79;21080;-64
2022/11/23 05:54:12;;;;;;;31.07;14.40;;;;;;;-2.41;100.00;99751.50;1809466;79;22214;-88
2022/11/23 05:56:41;;;;;;;33.60;16.02;;;;;;;-2.11;100.00;99756.48;1790417;80;21025;-89
2022/11/23 05:59:10;;;;;;;24.65;13.03;;;;;;;-1.66;100.00;99765.41;1789509;80;21768;-89
2022/11/23 06:01:38;;;;;;;26.75;13.93;;;;;;;-1.50;100.00;99762.06;1790061;80;20946;-89
2022/11/23 06:04:05;;;;;;;32.93;16.27;;;;;;;-1.35;100.00;99760.00;1760419;80;21122;-87
2022/11/23 06:06:37;;;;;;;32.03;14.85;;;;;;;-1.24;100.00;99765.23;1790562;80;20922;-89
2022/11/23 06:09:05;;;;;;;26.30;13.83;;;;;;;-1.18;100.00;99766.54;1792061;76;20930;-89
2022/11/23 06:11:34;;;;;;;22.60;11.50;;;;;;;-1.07;100.00;99767.45;1792440;77;20957;-89
2022/11/23 06:14:03;;;;;;;26.75;12.68;;;;;;;-0.96;100.00;99766.66;1788944;76;22234;-88
2022/11/23 06:16:47;;;;;;;20.12;10.88;;;;;;;-0.83;100.00;99764.52;1790944;76;20843;-88
2022/11/23 06:19:29;;;;;;;25.72;13.45;;;;;;;-0.85;100.00;99774.02;1764069;80;21005;-88
2022/11/23 06:21:56;;;;;;;21.62;11.38;;;;;;;-0.82;100.00;99784.36;1788778;80;21033;-87
2022/11/23 06:24:24;;;;;;;20.23;10.98;;;;;;;-0.87;100.00;99788.22;1788922;80;22012;-90
2022/11/23 06:26:53;;;;;;;19.95;10.43;;;;;;;-0.75;100.00;99793.86;1785260;80;21057;-88
2022/11/23 06:29:46;;;;;;;22.45;11.10;;;;;;;-0.75;100.00;99792.57;1790885;80;20978;-88
2022/11/23 06:32:14;;;;;;;17.80;10.18;;;;;;;-0.70;100.00;99788.27;1790011;79;21546;-88
2022/11/23 06:34:44;;;;;;;20.02;10.82;;;;;;;-0.86;100.00;99787.35;1788058;80;21093;-89
2022/11/23 06:37:12;;;;;;;19.82;10.80;;;;;;;-0.74;100.00;99780.06;1788206;80;22300;-87
2022/11/23 06:39:41;;;;;;;20.25;10.35;;;;;;;-0.78;100.00;99787.40;1787722;80;21167;-88
2022/11/23 06:42:08;;;;;;;21.97;10.93;;;;;;;-0.78;100.00;99797.74;1788521;80;21068;-88
2022/11/23 06:44:35;;;;;;;18.07;10.05;;;;;;;-0.72;100.00;99792.57;1789227;80;21080;-90
2022/11/23 06:47:02;;;;;;;16.87;8.63;;;;;;;-0.66;100.00;99796.48;1789087;80;21277;-90
2022/11/23 06:49:31;;;;;;;17.82;9.98;;;;;;;-0.61;100.00;99798.22;1775490;80;21145;-90
2022/11/23 06:52:00;;;;;;;17.90;9.93;;;;;;;-0.57;100.00;99794.80;1758384;81;21008;-90
2022/11/23 06:54:27;;;;;;;18.37;9.23;;;;;;;-0.55;100.00;99789.16;1727894;81;21041;-90
2022/11/23 06:56:59;;;;;;;16.77;9.40;;;;;;;-0.48;100.00;99793.52;1758433;81;21088;-89
2022/11/23 06:59:25;;;;;;;19.47;10.30;;;;;;;-0.35;100.00;99793.95;1758154;80;21009;-90
2022/11/23 07:01:52;;;;;;;17.20;9.90;;;;;;;-0.22;100.00;99795.70;1745806;81;21282;-90
2022/11/23 07:04:20;;;;;;;20.50;11.15;;;;;;;-0.15;100.00;99800.47;1726809;83;21037;-89
2022/11/23 07:06:51;;;;;;;16.40;9.13;;;;;;;-0.16;100.00;99792.69;1726617;83;21068;-91
2022/11/23 07:09:23;;;;;;;15.45;9.15;;;;;;;-0.16;100.00;99793.98;1725428;83;21104;-89
2022/11/23 07:11:52;;;;;;;21.23;10.28;;;;;;;-0.09;100.00;99791.83;1725628;83;21014;-90
2022/11/23 07:14:18;;;;;;;21.48;10.45;;;;;;;-0.10;100.00;99784.94;1726587;83;22005;-90
2022/11/23 07:16:47;;;;;;;19.00;10.18;;;;;;;-0.16;100.00;99787.52;1726695;83;21057;-90
2022/11/23 07:19:14;;;;;;;23.60;12.63;;;;;;;-0.17;100.00;99790.98;1691250;84;21130;-91
2022/11/23 07:21:44;;;;;;;19.98;11.40;;;;;;;-0.14;100.00;99791.83;1686131;85;21011;-91
2022/11/23 07:24:13;;;;;;;21.42;11.35;;;;;;;-0.07;100.00;99797.88;1686136;85;21053;-90
2022/11/23 07:26:42;;;;;;;21.68;11.20;;;;;;;-0.18;100.00;99807.34;1685764;85;21765;-90
2022/11/23 07:29:11;;;;;;;21.12;11.00;;;;;;;-0.10;100.00;99809.09;1658286;85;21071;-91
2022/11/23 07:31:38;;;;;;;25.05;11.80;;;;;;;-0.03;100.00;99806.08;1685803;85;21057;-90
2022/11/23 07:34:07;;;;;;;23.07;10.55;;;;;;;-0.08;100.00;99806.52;1684927;85;21720;-90
2022/11/23 07:36:35;;;;;;;22.02;11.95;;;;;;;-0.14;100.00;99805.20;1685097;85;21242;-90
2022/11/23 07:39:02;;;;;;;18.82;11.08;;;;;;;0.22;100.00;99807.39;1685043;85;21202;-89
2022/11/23 07:41:32;;;;;;;19.75;10.90;;;;;;;0.14;100.00;99806.97;1685517;85;21049;-88
2022/11/23 07:44:03;;;;;;;20.90;11.03;;;;;;;0.06;100.00;99822.92;1684782;85;21114;-89
2022/11/23 07:49:41;;;;;;;18.20;10.23;;;;;;;0.09;100.00;99822.05;1616238;88;22181;-68
2022/11/23 07:52:08;;;;;;;22.87;11.90;;;;;;;0.07;100.00;99821.19;1616066;88;21792;-67
2022/11/23 07:54:36;;;;;;;19.40;10.65;;;;;;;0.08;100.00;99823.78;1573056;88;21567;-67
2022/11/23 07:57:03;;;;;;;24.77;12.30;;;;;;;0.06;100.00;99825.50;1613239;88;21074;-68
2022/11/23 07:59:30;;;;;;;25.12;12.65;;;;;;;-0.04;100.00;99825.08;1613330;88;21131;-67
2022/11/23 08:01:57;;;;;;;21.97;11.25;;;;;;;-0.07;100.00;99826.34;1613573;88;21068;-67
2022/11/23 08:04:23;;;;;;;24.80;12.65;;;;;;;-0.01;100.00;99831.55;1613286;88;21220;-67
2022/11/23 08:06:49;;;;;;;22.98;11.95;;;;;;;0.08;100.00;99829.41;1613653;88;21037;-67
2022/11/23 08:09:16;;;;;;;25.48;13.35;;;;;;;0.00;100.00;99830.70;1613374;88;21108;-67
2022/11/23 08:11:43;;;;;;;30.88;15.83;;;;;;;0.03;100.00;99838.90;1613314;88;21059;-67
2022/11/23 08:14:11;;;;;;;23.00;11.70;;;;;;;0.12;100.00;99838.47;1613381;88;21096;-67
2022/11/23 08:16:38;;;;;;;23.52;14.00;;;;;;;0.14;100.00;99838.04;1613347;88;21183;-67
2022/11/23 08:19:05;;;;;;;25.80;14.63;;;;;;;0.23;100.00;99838.89;1613131;88;21548;-67
2022/11/23 08:21:32;;;;;;;20.10;11.10;;;;;;;0.31;100.00;99834.59;1613304;88;21663;-67
2022/11/23 08:23:58;;;;;;;26.82;13.80;;;;;;;0.29;100.00;99843.64;1613277;88;21619;-67
2022/11/23 08:26:25;;;;;;;22.22;12.55;;;;;;;0.34;100.00;99841.05;1613445;88;21563;-67
2022/11/23 08:28:52;;;;;;;26.17;13.35;;;;;;;0.46;100.00;99846.25;1613433;88;21560;-67
2022/11/23 08:31:19;;;;;;;25.20;13.65;;;;;;;0.51;100.00;99853.58;1613598;88;21072;-68
2022/11/23 08:33:46;;;;;;;26.42;14.53;;;;;;;0.52;100.00;99847.52;1613318;88;21108;-67
2022/11/23 08:36:13;;;;;;;26.62;13.83;;;;;;;0.47;100.00;99849.70;1613517;88;21128;-67
2022/11/23 08:38:43;;;;;;;26.02;14.83;;;;;;;0.53;100.00;99847.97;1613278;88;22105;-67
2022/11/23 08:41:09;;;;;;;27.07;13.90;;;;;;;0.54;100.00;99844.50;1613008;88;21262;-67
2022/11/23 08:43:36;;;;;;;32.55;13.78;;;;;;;0.58;100.00;99848.82;1613273;88;22124;-67
2022/11/23 08:46:04;;;;;;;27.15;14.83;;;;;;;0.52;100.00;99847.52;1613230;88;21064;-67
2022/11/23 08:48:31;;;;;;;26.82;14.98;;;;;;;0.55;100.00;99843.66;1635334;86;21042;-67
2022/11/23 08:50:59;;;;;;;26.05;14.23;;;;;;;0.41;100.00;99840.19;1663043;86;21071;-67
2022/11/23 08:53:26;;;;;;;26.90;14.07;;;;;;;0.37;100.00;99837.19;1663035;84;21962;-68
2022/11/23 08:55:54;;;;;;;30.40;15.20;;;;;;;0.38;100.00;99842.78;1662964;86;21043;-68
2022/11/23 08:58:20;;;;;;;26.97;14.55;;;;;;;0.39;100.00;99831.55;1663309;86;21054;-68
2022/11/23 09:00:47;;;;;;;26.27;14.87;;;;;;;0.49;100.00;99832.42;1663186;86;21084;-68
2022/11/23 09:03:14;;;;;;;28.35;15.65;;;;;;;0.53;100.00;99825.95;1663547;86;21137;-68
2022/11/23 09:05:42;;;;;;;25.00;13.68;;;;;;;0.44;100.00;99829.84;1663147;86;21224;-69
2022/11/23 09:08:08;;;;;;;28.05;14.95;;;;;;;0.49;100.00;99833.28;1663128;86;21055;-67
2022/11/23 09:10:35;;;;;;;28.20;14.60;;;;;;;0.48;100.00;99823.77;1663116;86;21107;-68
2022/11/23 09:13:02;;;;;;;28.12;15.25;;;;;;;0.56;100.00;99817.30;1663101;86;21583;-68
2022/11/23 09:15:29;;;;;;;26.07;13.72;;;;;;;0.70;100.00;99814.69;1663089;86;21642;-68
2022/11/23 09:17:56;;;;;;;23.38;13.10;;;;;;;0.59;100.00;99819.44;1663202;86;21164;-67
2022/11/23 09:20:23;;;;;;;36.20;18.20;;;;;;;0.66;100.00;99819.44;1663230;86;21125;-68
2022/11/23 09:22:52;;;;;;;25.55;13.93;;;;;;;0.60;100.00;99816.00;1663235;86;21559;-68
2022/11/23 09:25:19;;;;;;;26.87;15.43;;;;;;;0.68;100.00;99817.70;1663111;86;21118;-68
2022/11/23 09:27:48;;;;;;;31.97;16.82;;;;;;;0.62;100.00;99809.09;1663183;86;21593;-69
2022/11/23 09:30:16;;;;;;;31.10;15.95;;;;;;;0.54;100.00;99810.81;1663270;86;21144;-68
2022/11/23 09:32:43;;;;;;;32.38;18.00;;;;;;;0.52;100.00;99803.47;1663438;86;21562;-68
2022/11/23 09:35:10;;;;;;;33.80;17.40;;;;;;;0.57;100.00;99801.73;1663140;86;21099;-68
2022/11/23 09:37:38;;;;;;;29.20;16.62;;;;;;;0.60;100.00;99808.22;1663079;86;21063;-68
2022/11/23 09:40:06;;;;;;;31.90;18.05;;;;;;;0.54;100.00;99800.45;1663111;86;21097;-68
2022/11/23 09:42:51;;;;;;;31.23;16.62;;;;;;;0.50;100.00;99792.24;1663165;86;21269;-68
2022/11/23 09:45:54;;;;;;;28.95;15.75;;;;;;;0.46;100.00;99801.31;1647353;86;21070;-68
2022/11/23 09:48:44;;;;;;;32.30;17.07;;;;;;;0.40;100.00;99816.45;1656282;86;21563;-67
2022/11/23 09:51:22;;;;;;;37.42;18.55;;;;;;;0.42;100.00;99810.84;1632309;87;21075;-67
2022/11/23 09:54:03;;;;;;;32.95;16.85;;;;;;;0.56;100.00;99810.83;1603191;88;21444;-67
2022/11/23 09:56:34;;;;;;;35.17;18.15;;;;;;;0.53;100.00;99814.28;1632505;87;21144;-67
2022/11/23 09:59:12;;;;;;;35.40;17.82;;;;;;;0.53;100.00;99808.22;1603321;89;21076;-68
2022/11/23 10:01:40;;;;;;;37.98;18.55;;;;;;;0.52;100.00;99809.09;1621548;87;21547;-68
2022/11/23 10:04:15;;;;;;;39.78;20.95;;;;;;;0.50;100.00;99806.94;1632354;87;21552;-68
2022/11/23 10:06:42;;;;;;;37.13;17.73;;;;;;;0.36;100.00;99805.66;1632651;87;21079;-67
2022/11/23 10:09:39;;;;;;;45.60;21.57;;;;;;;0.28;100.00;99803.08;1603162;89;21269;-68
